Ramsey, South Dakota
Current Conditions -  °F | °C
As of 6:10 PM on Friday 19 Dec 2014 (Local Time) from KMDS Reporting Station
Haze Haze  
Wind Chill: 17°   Ceiling: 300
Heat Index: 28°   Visibility: 3mi
Dew Point: 28°   Wind: 14mph
Humidity: 100%   Direction: 180°S
Pressure: 30.06"   Gusts: 20mph
Location:  43.7174°N, 97.1892°W
Report Text: KMDS 200010Z AUTO 18012G17KT 3SM BR OVC003 M02/M02 A3006 RMK AO2
Loading
Personal Weather Stations






























Interactive Weather Map New forecast layout! Learn more

10-Day Weather Forecast

Advertisements
Track Severe Weather on mobile